createdAt,value
2018-12-23T00:00:18.024Z,18.84
2018-12-23T00:01:17.940Z,18.84
2018-12-23T00:02:17.641Z,18.83
2018-12-23T00:03:18.255Z,18.84
2018-12-23T00:04:17.970Z,18.83
2018-12-23T00:05:16.858Z,18.81
2018-12-23T00:06:18.179Z,18.81
2018-12-23T00:07:17.625Z,18.81
2018-12-23T00:08:17.844Z,18.79
2018-12-23T00:09:17.715Z,18.8
2018-12-23T00:10:17.944Z,18.81
2018-12-23T00:11:17.661Z,18.79
2018-12-23T00:12:17.786Z,18.79
2018-12-23T00:13:17.828Z,18.78
2018-12-23T00:14:18.319Z,18.78
2018-12-23T00:15:18.293Z,18.78
2018-12-23T00:16:18.004Z,18.78
2018-12-23T00:17:18.078Z,18.77
2018-12-23T00:18:18.486Z,18.77
2018-12-23T00:19:18.077Z,18.76
2018-12-23T00:20:17.940Z,18.77
2018-12-23T00:21:16.851Z,18.76
2018-12-23T00:22:17.995Z,18.75
2018-12-23T00:23:17.702Z,18.74
2018-12-23T00:24:17.954Z,18.74
2018-12-23T00:25:18.004Z,18.73
2018-12-23T00:26:18.369Z,18.74
2018-12-23T00:27:17.857Z,18.73
2018-12-23T00:28:18.202Z,18.72
2018-12-23T00:29:17.932Z,18.72
2018-12-23T00:30:17.875Z,18.72
2018-12-23T00:31:18.105Z,18.72
2018-12-23T00:32:18.854Z,18.71
2018-12-23T00:33:18.267Z,18.71
2018-12-23T00:34:17.808Z,18.72
2018-12-23T00:35:21.008Z,18.71
2018-12-23T00:36:18.644Z,18.71
2018-12-23T00:37:17.624Z,18.7
2018-12-23T00:38:17.198Z,18.7
2018-12-23T00:39:17.515Z,18.69
2018-12-23T00:40:17.991Z,18.7
2018-12-23T00:41:18.667Z,18.69
2018-12-23T00:42:19.397Z,18.68
2018-12-23T00:43:17.943Z,18.66
2018-12-23T00:44:18.035Z,18.67
2018-12-23T00:45:17.093Z,18.67
2018-12-23T00:46:17.034Z,18.68
2018-12-23T00:47:18.013Z,18.68
2018-12-23T00:48:17.981Z,18.66
2018-12-23T00:49:18.194Z,18.66
2018-12-23T00:50:17.726Z,18.66
2018-12-23T00:51:18.186Z,18.66
2018-12-23T00:52:18.599Z,18.66
2018-12-23T00:53:18.743Z,18.66
2018-12-23T00:54:17.878Z,18.65
2018-12-23T00:55:17.888Z,18.64
2018-12-23T00:56:18.499Z,18.64
2018-12-23T00:57:19.681Z,18.63
2018-12-23T00:58:18.412Z,18.63
2018-12-23T00:59:18.720Z,18.62
2018-12-23T01:00:18.471Z,18.61
2018-12-23T01:01:18.012Z,18.6
2018-12-23T01:02:18.451Z,18.61
2018-12-23T01:03:18.374Z,18.6
2018-12-23T01:04:18.400Z,18.6
2018-12-23T01:05:19.110Z,18.6
2018-12-23T01:06:19.345Z,18.6
2018-12-23T01:07:19.290Z,18.59
2018-12-23T01:08:18.710Z,18.59
2018-12-23T01:09:17.840Z,18.59
2018-12-23T01:10:18.776Z,18.59
2018-12-23T01:11:18.459Z,18.58
2018-12-23T01:12:18.480Z,18.58
2018-12-23T01:13:18.111Z,18.58
2018-12-23T01:14:17.962Z,18.58
2018-12-23T01:15:17.692Z,18.57
2018-12-23T01:16:17.954Z,18.57
2018-12-23T01:17:17.951Z,18.57
2018-12-23T01:18:17.361Z,18.56
2018-12-23T01:19:17.333Z,18.56
2018-12-23T01:20:18.474Z,18.55
2018-12-23T01:21:17.738Z,18.55
2018-12-23T01:22:18.121Z,18.55
2018-12-23T01:23:18.737Z,18.55
2018-12-23T01:24:18.038Z,18.54
2018-12-23T01:25:18.588Z,18.54
2018-12-23T01:26:18.150Z,18.54
2018-12-23T01:27:18.291Z,18.54
2018-12-23T01:28:18.695Z,18.54
2018-12-23T01:29:17.903Z,18.54
2018-12-23T01:30:18.241Z,18.54
2018-12-23T01:31:17.386Z,18.54
2018-12-23T01:32:18.336Z,18.52
2018-12-23T01:33:19.263Z,18.52
2018-12-23T01:34:18.757Z,18.51
2018-12-23T01:35:17.842Z,18.52
2018-12-23T01:36:17.996Z,18.51
2018-12-23T01:37:17.982Z,18.51
2018-12-23T01:38:18.206Z,18.51
2018-12-23T01:39:17.965Z,18.49
2018-12-23T01:40:16.996Z,18.48
2018-12-23T01:41:18.439Z,18.49
2018-12-23T01:42:17.996Z,18.49
2018-12-23T01:43:18.211Z,18.48
2018-12-23T01:44:17.689Z,18.49
2018-12-23T01:45:18.589Z,18.48
2018-12-23T01:46:17.925Z,18.47
2018-12-23T01:47:17.903Z,18.47
2018-12-23T01:48:17.656Z,18.47
2018-12-23T01:49:17.896Z,18.46
2018-12-23T01:50:18.030Z,18.48
2018-12-23T01:51:18.495Z,18.47
2018-12-23T01:52:18.449Z,18.46
2018-12-23T01:53:18.310Z,18.46
2018-12-23T01:54:17.782Z,18.45
2018-12-23T01:55:18.159Z,18.45
2018-12-23T01:56:17.873Z,18.44
2018-12-23T01:57:17.769Z,18.43
2018-12-23T01:58:18.181Z,18.44
2018-12-23T01:59:17.942Z,18.43
2018-12-23T02:00:17.664Z,18.42
2018-12-23T02:01:17.719Z,18.43
2018-12-23T02:02:18.947Z,18.43
2018-12-23T02:03:18.160Z,18.41
2018-12-23T02:04:17.920Z,18.41
2018-12-23T02:05:17.763Z,18.42
2018-12-23T02:06:18.363Z,18.42
2018-12-23T02:07:17.935Z,18.41
2018-12-23T02:08:17.411Z,18.41
2018-12-23T02:09:18.775Z,18.41
2018-12-23T02:10:18.927Z,18.4
2018-12-23T02:11:18.555Z,18.41
2018-12-23T02:12:18.021Z,18.41
2018-12-23T02:13:18.071Z,18.4
2018-12-23T02:14:18.048Z,18.4
2018-12-23T02:15:17.260Z,18.4
2018-12-23T02:16:18.606Z,18.39
2018-12-23T02:17:17.923Z,18.38
2018-12-23T02:18:18.730Z,18.39
2018-12-23T02:19:16.946Z,18.39
2018-12-23T02:20:17.960Z,18.38
2018-12-23T02:21:18.164Z,18.38
2018-12-23T02:22:17.532Z,18.37
2018-12-23T02:23:19.002Z,18.36
2018-12-23T02:24:18.815Z,18.36
2018-12-23T02:25:17.908Z,18.36
2018-12-23T02:26:18.641Z,18.36
2018-12-23T02:27:17.851Z,18.35
2018-12-23T02:28:17.656Z,18.35
2018-12-23T02:29:17.709Z,18.36
2018-12-23T02:30:17.606Z,18.35
2018-12-23T02:31:18.661Z,18.35
2018-12-23T02:32:17.869Z,18.36
2018-12-23T02:33:18.353Z,18.35
2018-12-23T02:34:18.018Z,18.35
2018-12-23T02:35:18.300Z,18.35
2018-12-23T02:36:17.801Z,18.35
2018-12-23T02:37:18.213Z,18.35
2018-12-23T02:38:18.081Z,18.35
2018-12-23T02:39:16.999Z,18.35
2018-12-23T02:40:18.137Z,18.34
2018-12-23T02:41:18.033Z,18.33
2018-12-23T02:42:18.048Z,18.34
2018-12-23T02:43:16.880Z,18.33
2018-12-23T02:44:17.794Z,18.34
2018-12-23T02:45:18.032Z,18.33
2018-12-23T02:46:17.719Z,18.31
2018-12-23T02:47:18.168Z,18.32
2018-12-23T02:48:18.706Z,18.31
2018-12-23T02:49:17.675Z,18.32
2018-12-23T02:50:18.225Z,18.31
2018-12-23T02:51:17.942Z,18.31
2018-12-23T02:52:17.144Z,18.31
2018-12-23T02:53:17.937Z,18.3
2018-12-23T02:54:18.206Z,18.3
2018-12-23T02:55:17.706Z,18.29
2018-12-23T02:56:18.166Z,18.29
2018-12-23T02:57:17.870Z,18.3
2018-12-23T02:58:17.634Z,18.29
2018-12-23T02:59:17.863Z,18.29
2018-12-23T03:00:17.245Z,18.29
2018-12-23T03:01:17.937Z,18.27
2018-12-23T03:02:18.107Z,18.28
2018-12-23T03:03:17.018Z,18.28
2018-12-23T03:04:18.558Z,18.28
2018-12-23T03:05:17.582Z,18.27
2018-12-23T03:06:17.906Z,18.26
2018-12-23T03:07:18.044Z,18.26
2018-12-23T03:08:17.719Z,18.25
2018-12-23T03:09:17.925Z,18.25
2018-12-23T03:10:18.269Z,18.25
2018-12-23T03:11:18.089Z,18.25
2018-12-23T03:12:18.302Z,18.25
2018-12-23T03:13:17.998Z,18.25
2018-12-23T03:14:18.227Z,18.23
2018-12-23T03:15:17.443Z,18.23
2018-12-23T03:16:18.069Z,18.23
2018-12-23T03:17:18.065Z,18.23
2018-12-23T03:18:17.684Z,18.23
2018-12-23T03:19:17.968Z,18.23
2018-12-23T03:20:19.131Z,18.23
2018-12-23T03:21:17.949Z,18.23
2018-12-23T03:22:17.996Z,18.23
2018-12-23T03:23:17.892Z,18.23
2018-12-23T03:24:16.876Z,18.23
2018-12-23T03:25:18.184Z,18.22
2018-12-23T03:26:17.914Z,18.22
2018-12-23T03:27:17.835Z,18.21
2018-12-23T03:28:17.922Z,18.21
2018-12-23T03:29:17.748Z,18.22
2018-12-23T03:30:17.609Z,18.21
2018-12-23T03:31:17.868Z,18.21
2018-12-23T03:32:18.062Z,18.2
2018-12-23T03:33:18.038Z,18.2
2018-12-23T03:34:17.965Z,18.2
2018-12-23T03:35:18.011Z,18.2
2018-12-23T03:36:17.956Z,18.19
2018-12-23T03:37:18.014Z,18.18
2018-12-23T03:38:17.972Z,18.18
2018-12-23T03:39:18.015Z,18.18
2018-12-23T03:40:17.919Z,18.18
2018-12-23T03:41:17.725Z,18.18
2018-12-23T03:42:17.707Z,18.17
2018-12-23T03:43:17.660Z,18.17
2018-12-23T03:44:17.880Z,18.17
2018-12-23T03:45:17.537Z,18.17
2018-12-23T03:46:18.114Z,18.17
2018-12-23T03:47:17.600Z,18.17
2018-12-23T03:48:17.837Z,18.17
2018-12-23T03:49:17.860Z,18.17
2018-12-23T03:50:18.262Z,18.17
2018-12-23T03:51:18.129Z,18.16
2018-12-23T03:52:18.182Z,18.16
2018-12-23T03:53:18.279Z,18.17
2018-12-23T03:54:18.531Z,18.16
2018-12-23T03:55:17.810Z,18.17
2018-12-23T03:56:17.984Z,18.16
2018-12-23T03:57:17.940Z,18.16
2018-12-23T03:58:17.955Z,18.16
2018-12-23T03:59:17.668Z,18.16
2018-12-23T04:00:17.928Z,18.16
2018-12-23T04:01:17.007Z,18.15
2018-12-23T04:02:17.924Z,18.15
2018-12-23T04:03:17.675Z,18.15
2018-12-23T04:04:18.118Z,18.14
2018-12-23T04:05:18.097Z,18.14
2018-12-23T04:06:25.242Z,18.14
2018-12-23T04:07:18.137Z,18.15
2018-12-23T04:08:17.806Z,18.14
2018-12-23T04:09:18.011Z,18.13
2018-12-23T04:10:18.270Z,18.13
2018-12-23T04:11:17.988Z,18.13
2018-12-23T04:12:17.948Z,18.13
2018-12-23T04:13:17.981Z,18.13
2018-12-23T04:14:17.735Z,18.13
2018-12-23T04:15:17.603Z,18.13
2018-12-23T04:16:18.047Z,18.13
2018-12-23T04:17:17.967Z,18.11
2018-12-23T04:18:17.807Z,18.11
2018-12-23T04:19:17.980Z,18.12
2018-12-23T04:20:17.924Z,18.11
2018-12-23T04:21:17.565Z,18.1
2018-12-23T04:22:18.183Z,18.11
2018-12-23T04:23:17.906Z,18.1
2018-12-23T04:24:18.115Z,18.1
2018-12-23T04:25:18.060Z,18.1
2018-12-23T04:26:17.788Z,18.1
2018-12-23T04:27:17.556Z,18.1
2018-12-23T04:28:18.060Z,18.09
2018-12-23T04:29:17.781Z,18.09
2018-12-23T04:30:18.037Z,18.09
2018-12-23T04:31:17.474Z,18.08
2018-12-23T04:32:17.748Z,18.08
2018-12-23T04:33:18.077Z,18.08
2018-12-23T04:34:17.696Z,18.07
2018-12-23T04:35:18.330Z,18.07
2018-12-23T04:36:17.760Z,18.07
2018-12-23T04:37:18.047Z,18.08
2018-12-23T04:38:18.561Z,18.07
2018-12-23T04:39:18.426Z,18.08
2018-12-23T04:40:18.298Z,18.08
2018-12-23T04:41:18.246Z,18.09
2018-12-23T04:42:18.274Z,18.08
2018-12-23T04:43:17.943Z,18.09
2018-12-23T04:44:17.984Z,18.09
2018-12-23T04:45:17.886Z,18.1
2018-12-23T04:46:17.999Z,18.1
2018-12-23T04:47:18.163Z,18.1
2018-12-23T04:48:18.107Z,18.11
2018-12-23T04:49:18.092Z,18.12
2018-12-23T04:50:17.851Z,18.13
2018-12-23T04:51:18.107Z,18.13
2018-12-23T04:52:17.889Z,18.14
2018-12-23T04:53:18.550Z,18.15
2018-12-23T04:54:17.454Z,18.16
2018-12-23T04:55:17.936Z,18.17
2018-12-23T04:56:18.286Z,18.17
2018-12-23T04:57:18.126Z,18.18
2018-12-23T04:58:18.005Z,18.2
2018-12-23T04:59:17.972Z,18.21
2018-12-23T05:00:18.246Z,18.23
2018-12-23T05:01:17.662Z,18.23
2018-12-23T05:02:18.399Z,18.25
2018-12-23T05:03:22.843Z,18.27
2018-12-23T05:04:17.853Z,18.28
2018-12-23T05:05:17.997Z,18.3
2018-12-23T05:06:18.261Z,18.32
2018-12-23T05:07:17.830Z,18.33
2018-12-23T05:08:17.799Z,18.35
2018-12-23T05:09:17.830Z,18.36
2018-12-23T05:10:17.750Z,18.39
2018-12-23T05:11:18.028Z,18.41
2018-12-23T05:12:17.987Z,18.42
2018-12-23T05:13:17.978Z,18.44
2018-12-23T05:14:18.006Z,18.46
2018-12-23T05:15:17.154Z,18.48
2018-12-23T05:16:18.016Z,18.48
2018-12-23T05:17:17.967Z,18.5
2018-12-23T05:18:18.247Z,18.52
2018-12-23T05:19:18.239Z,18.53
2018-12-23T05:20:17.678Z,18.54
2018-12-23T05:21:18.436Z,18.56
2018-12-23T05:22:17.968Z,18.56
2018-12-23T05:23:18.154Z,18.59
2018-12-23T05:24:17.856Z,18.59
2018-12-23T05:25:17.671Z,18.6
2018-12-23T05:26:17.912Z,18.62
2018-12-23T05:27:16.843Z,18.62
2018-12-23T05:28:17.618Z,18.64
2018-12-23T05:29:17.707Z,18.65
2018-12-23T05:30:18.048Z,18.66
2018-12-23T05:31:16.964Z,18.69
2018-12-23T05:32:18.173Z,18.7
2018-12-23T05:33:18.080Z,18.71
2018-12-23T05:34:17.841Z,18.72
2018-12-23T05:35:17.775Z,18.73
2018-12-23T05:36:18.067Z,18.74
2018-12-23T05:37:17.832Z,18.75
2018-12-23T05:38:17.992Z,18.77
2018-12-23T05:39:18.000Z,18.78
2018-12-23T05:40:18.213Z,18.78
2018-12-23T05:41:17.952Z,18.79
2018-12-23T05:42:17.954Z,18.8
2018-12-23T05:43:17.416Z,18.81
2018-12-23T05:44:18.228Z,18.83
2018-12-23T05:45:17.695Z,18.84
2018-12-23T05:46:17.901Z,18.85
2018-12-23T05:47:18.001Z,18.86
2018-12-23T05:48:17.874Z,18.86
2018-12-23T05:49:17.602Z,18.88
2018-12-23T05:50:17.593Z,18.9
2018-12-23T05:51:18.198Z,18.9
2018-12-23T05:52:17.807Z,18.92
2018-12-23T05:53:17.524Z,18.92
2018-12-23T05:54:17.762Z,18.93
2018-12-23T05:55:17.529Z,18.94
2018-12-23T05:56:18.010Z,18.96
2018-12-23T05:57:18.028Z,18.96
2018-12-23T05:58:18.201Z,18.97
2018-12-23T05:59:17.790Z,18.97
2018-12-23T06:00:18.168Z,18.98
2018-12-23T06:01:17.909Z,18.99
2018-12-23T06:02:17.925Z,19.01
2018-12-23T06:03:17.283Z,19.01
2018-12-23T06:04:17.914Z,19.02
2018-12-23T06:05:17.902Z,19.03
2018-12-23T06:06:17.889Z,19.03
2018-12-23T06:07:17.687Z,19.04
2018-12-23T06:08:17.876Z,19.03
2018-12-23T06:09:17.875Z,19.05
2018-12-23T06:10:17.608Z,19.06
2018-12-23T06:11:17.974Z,19.07
2018-12-23T06:12:17.953Z,19.06
2018-12-23T06:13:17.529Z,19.07
2018-12-23T06:14:17.991Z,19.08
2018-12-23T06:15:17.614Z,19.08
2018-12-23T06:16:17.799Z,19.09
2018-12-23T06:17:17.765Z,19.09
2018-12-23T06:18:18.234Z,19.09
2018-12-23T06:19:17.998Z,19.09
2018-12-23T06:20:17.722Z,19.09
2018-12-23T06:21:18.174Z,19.1
2018-12-23T06:22:18.206Z,19.1
2018-12-23T06:23:18.137Z,19.1
2018-12-23T06:24:17.643Z,19.1
2018-12-23T06:25:17.853Z,19.11
2018-12-23T06:26:18.010Z,19.11
2018-12-23T06:27:17.836Z,19.11
2018-12-23T06:28:18.100Z,19.11
2018-12-23T06:29:17.554Z,19.13
2018-12-23T06:30:17.805Z,19.12
2018-12-23T06:31:18.390Z,19.13
2018-12-23T06:32:17.566Z,19.13
2018-12-23T06:33:16.579Z,19.12
2018-12-23T06:34:17.905Z,19.13
2018-12-23T06:35:18.089Z,19.14
2018-12-23T06:36:17.817Z,19.13
2018-12-23T06:37:17.583Z,19.14
2018-12-23T06:38:17.653Z,19.14
2018-12-23T06:39:18.022Z,19.15
2018-12-23T06:40:18.002Z,19.15
2018-12-23T06:41:17.997Z,19.15
2018-12-23T06:42:17.959Z,19.15
2018-12-23T06:43:17.954Z,19.16
2018-12-23T06:44:17.421Z,19.15
2018-12-23T06:45:17.953Z,19.16
2018-12-23T06:46:17.533Z,19.17
2018-12-23T06:47:17.792Z,19.17
2018-12-23T06:48:18.145Z,19.17
2018-12-23T06:49:17.895Z,19.17
2018-12-23T06:50:17.630Z,19.19
2018-12-23T06:51:17.768Z,19.19
2018-12-23T06:52:17.845Z,19.2
2018-12-23T06:53:17.833Z,19.21
2018-12-23T06:54:18.051Z,19.21
2018-12-23T06:55:18.123Z,19.21
2018-12-23T06:56:17.832Z,19.21
2018-12-23T06:57:18.073Z,19.22
2018-12-23T06:58:17.525Z,19.22
2018-12-23T06:59:17.719Z,19.22
2018-12-23T07:00:17.753Z,19.24
2018-12-23T07:01:17.721Z,19.24
2018-12-23T07:02:17.955Z,19.23
2018-12-23T07:03:17.903Z,19.25
2018-12-23T07:04:18.205Z,19.26
2018-12-23T07:05:17.905Z,19.26
2018-12-23T07:06:17.912Z,19.27
2018-12-23T07:07:19.311Z,19.27
2018-12-23T07:08:17.841Z,19.27
2018-12-23T07:09:17.596Z,19.28
2018-12-23T07:10:17.746Z,19.29
2018-12-23T07:11:18.577Z,19.3
2018-12-23T07:12:17.835Z,19.3
2018-12-23T07:13:17.565Z,19.31
2018-12-23T07:14:17.813Z,19.31
2018-12-23T07:15:17.164Z,19.32
2018-12-23T07:16:17.816Z,19.33
2018-12-23T07:17:17.449Z,19.33
2018-12-23T07:18:17.773Z,19.34
2018-12-23T07:19:18.001Z,19.35
2018-12-23T07:20:17.337Z,19.36
2018-12-23T07:21:17.647Z,19.36
2018-12-23T07:22:17.579Z,19.37
2018-12-23T07:23:17.826Z,19.38
2018-12-23T07:24:17.891Z,19.39
2018-12-23T07:25:17.917Z,19.39
2018-12-23T07:26:17.622Z,19.39
2018-12-23T07:27:17.789Z,19.39
2018-12-23T07:28:17.801Z,19.4
2018-12-23T07:29:18.026Z,19.4
2018-12-23T07:30:17.550Z,19.42
2018-12-23T07:31:17.793Z,19.42
2018-12-23T07:32:17.548Z,19.43
2018-12-23T07:33:17.537Z,19.44
2018-12-23T07:34:17.757Z,19.44
2018-12-23T07:35:17.522Z,19.45
2018-12-23T07:36:17.695Z,19.47
2018-12-23T07:37:17.726Z,19.46
2018-12-23T07:38:16.894Z,19.46
2018-12-23T07:39:17.672Z,19.48
2018-12-23T07:40:17.706Z,19.47
2018-12-23T07:41:17.935Z,19.48
2018-12-23T07:42:17.938Z,19.49
2018-12-23T07:43:17.941Z,19.48
2018-12-23T07:44:17.888Z,19.49
2018-12-23T07:45:18.008Z,19.5
2018-12-23T07:46:17.864Z,19.49
2018-12-23T07:47:18.158Z,19.5
2018-12-23T07:48:17.593Z,19.5
2018-12-23T07:49:18.143Z,19.51
2018-12-23T07:50:17.837Z,19.51
2018-12-23T07:51:17.473Z,19.51
2018-12-23T07:52:18.235Z,19.51
2018-12-23T07:53:17.539Z,19.51
2018-12-23T07:54:18.020Z,19.51
2018-12-23T07:55:17.756Z,19.51
2018-12-23T07:56:17.750Z,19.52
2018-12-23T07:57:22.067Z,19.52
2018-12-23T07:58:17.866Z,19.53
2018-12-23T07:59:17.647Z,19.53
2018-12-23T08:00:17.653Z,19.53
2018-12-23T08:01:17.613Z,19.54
2018-12-23T08:02:17.859Z,19.54
2018-12-23T08:03:17.610Z,19.54
2018-12-23T08:04:17.626Z,19.54
2018-12-23T08:05:17.669Z,19.55
2018-12-23T08:06:18.445Z,19.56
2018-12-23T08:07:17.523Z,19.56
2018-12-23T08:08:18.063Z,19.57
2018-12-23T08:09:17.793Z,19.57
2018-12-23T08:10:17.733Z,19.57
2018-12-23T08:11:17.959Z,19.57
2018-12-23T08:12:17.476Z,19.58
2018-12-23T08:13:17.576Z,19.58
2018-12-23T08:14:17.951Z,19.59
2018-12-23T08:15:17.912Z,19.6
2018-12-23T08:16:17.609Z,19.61
2018-12-23T08:17:17.964Z,19.62
2018-12-23T08:18:17.955Z,19.63
2018-12-23T08:19:18.347Z,19.62
2018-12-23T08:20:17.875Z,19.63
2018-12-23T08:21:17.630Z,19.63
2018-12-23T08:22:17.854Z,19.63
2018-12-23T08:23:17.817Z,19.63
2018-12-23T08:24:17.563Z,19.64
2018-12-23T08:25:17.626Z,19.64
2018-12-23T08:26:17.814Z,19.65
2018-12-23T08:27:17.532Z,19.65
2018-12-23T08:28:17.489Z,19.64
2018-12-23T08:29:17.745Z,19.65
2018-12-23T08:30:17.840Z,19.64
2018-12-23T08:31:17.702Z,19.64
2018-12-23T08:32:17.506Z,19.65
2018-12-23T08:33:17.329Z,19.65
2018-12-23T08:34:17.384Z,19.65
2018-12-23T08:35:18.193Z,19.66
2018-12-23T08:36:17.931Z,19.66
2018-12-23T08:37:17.625Z,19.66
2018-12-23T08:38:17.769Z,19.67
2018-12-23T08:39:17.908Z,19.66
2018-12-23T08:40:17.565Z,19.66
2018-12-23T08:41:17.860Z,19.66
2018-12-23T08:42:17.865Z,19.66
2018-12-23T08:43:17.856Z,19.66
2018-12-23T08:44:17.798Z,19.67
2018-12-23T08:45:17.833Z,19.66
2018-12-23T08:46:17.439Z,19.67
2018-12-23T08:47:17.811Z,19.68
2018-12-23T08:48:17.571Z,19.69
2018-12-23T08:49:18.507Z,19.68
2018-12-23T08:50:22.582Z,19.69
2018-12-23T08:51:17.503Z,19.69
2018-12-23T08:52:17.982Z,19.69
2018-12-23T08:53:17.092Z,19.69
2018-12-23T08:54:17.771Z,19.7
2018-12-23T08:55:16.879Z,19.7
2018-12-23T08:56:17.748Z,19.7
2018-12-23T08:57:17.754Z,19.71
2018-12-23T08:58:17.986Z,19.71
2018-12-23T08:59:17.986Z,19.72
2018-12-23T09:00:17.480Z,19.73
2018-12-23T09:01:17.954Z,19.72
2018-12-23T09:02:17.704Z,19.73
2018-12-23T09:03:19.390Z,19.74
2018-12-23T09:04:17.671Z,19.74
2018-12-23T09:05:17.910Z,19.74
2018-12-23T09:06:18.651Z,19.75
2018-12-23T09:07:17.870Z,19.75
2018-12-23T09:08:17.639Z,19.74
2018-12-23T09:09:17.887Z,19.74
2018-12-23T09:10:17.637Z,19.73
2018-12-23T09:11:17.858Z,19.74
2018-12-23T09:12:17.651Z,19.73
2018-12-23T09:13:17.456Z,19.72
2018-12-23T09:14:18.080Z,19.73
2018-12-23T09:15:17.581Z,19.72
2018-12-23T09:16:18.290Z,19.72
2018-12-23T09:17:17.922Z,19.72
2018-12-23T09:18:19.941Z,19.72
2018-12-23T09:19:17.939Z,19.72
2018-12-23T09:20:18.503Z,19.71
2018-12-23T09:21:17.747Z,19.71
2018-12-23T09:22:19.957Z,19.72
2018-12-23T09:23:17.918Z,19.72
2018-12-23T09:24:17.932Z,19.72
2018-12-23T09:25:17.660Z,19.71
2018-12-23T09:26:18.929Z,19.71
2018-12-23T09:27:18.919Z,19.72
2018-12-23T09:28:18.129Z,19.72
2018-12-23T09:29:17.856Z,19.71
2018-12-23T09:30:17.573Z,19.71
2018-12-23T09:31:17.838Z,19.71
2018-12-23T09:32:18.287Z,19.72
2018-12-23T09:33:17.847Z,19.71
2018-12-23T09:34:17.494Z,19.72
2018-12-23T09:35:18.509Z,19.72
2018-12-23T09:36:18.353Z,19.72
2018-12-23T09:37:17.982Z,19.72
2018-12-23T09:38:17.934Z,19.73
2018-12-23T09:39:18.405Z,19.7
2018-12-23T09:40:17.917Z,19.69
2018-12-23T09:41:16.760Z,19.7
2018-12-23T09:42:17.228Z,19.71
2018-12-23T09:43:17.588Z,19.72
2018-12-23T09:44:17.887Z,19.72
2018-12-23T09:45:17.664Z,19.74
2018-12-23T09:46:18.162Z,19.74
2018-12-23T09:47:18.049Z,19.75
2018-12-23T09:48:18.122Z,19.76
2018-12-23T09:49:18.003Z,19.76
2018-12-23T09:50:18.590Z,19.78
2018-12-23T09:51:17.557Z,19.78
2018-12-23T09:52:17.801Z,19.77
2018-12-23T09:53:17.798Z,19.77
2018-12-23T09:54:17.735Z,19.76
2018-12-23T09:55:17.511Z,19.77
2018-12-23T09:56:17.729Z,19.8
2018-12-23T09:57:17.712Z,19.82
2018-12-23T09:58:17.709Z,19.82
2018-12-23T09:59:17.649Z,19.82
2018-12-23T10:00:18.128Z,19.82
2018-12-23T10:01:17.900Z,19.82
2018-12-23T10:02:17.586Z,19.82
2018-12-23T10:03:17.820Z,19.83
2018-12-23T10:04:16.716Z,19.84
2018-12-23T10:05:17.621Z,19.83
2018-12-23T10:06:18.062Z,19.83
2018-12-23T10:07:17.888Z,19.81
2018-12-23T10:08:17.806Z,19.7
2018-12-23T10:09:17.572Z,19.54
2018-12-23T10:10:17.553Z,19.44
2018-12-23T10:11:17.525Z,19.34
2018-12-23T10:12:17.765Z,19.28
2018-12-23T10:13:17.772Z,19.27
2018-12-23T10:14:17.423Z,19.33
2018-12-23T10:15:17.963Z,19.39
2018-12-23T10:16:17.441Z,19.43
2018-12-23T10:17:17.692Z,19.47
2018-12-23T10:18:17.676Z,19.51
2018-12-23T10:19:17.671Z,19.51
2018-12-23T10:20:17.613Z,19.58
2018-12-23T10:21:17.597Z,19.62
2018-12-23T10:22:17.960Z,19.64
2018-12-23T10:23:17.552Z,19.67
2018-12-23T10:24:18.205Z,19.7
2018-12-23T10:25:17.777Z,19.75
2018-12-23T10:26:17.054Z,19.75
2018-12-23T10:27:18.099Z,19.78
2018-12-23T10:28:17.806Z,19.81
2018-12-23T10:29:17.757Z,19.82
2018-12-23T10:30:17.693Z,19.85
2018-12-23T10:31:17.969Z,19.86
2018-12-23T10:32:17.971Z,19.88
2018-12-23T10:33:17.963Z,19.88
2018-12-23T10:34:17.968Z,19.88
2018-12-23T10:35:17.826Z,19.88
2018-12-23T10:36:17.609Z,19.88
2018-12-23T10:37:17.698Z,19.88
2018-12-23T10:38:18.874Z,19.91
2018-12-23T10:39:17.770Z,19.92
2018-12-23T10:40:18.173Z,19.93
2018-12-23T10:41:17.766Z,19.95
2018-12-23T10:42:23.862Z,20.08
2018-12-23T10:43:23.303Z,20.16
2018-12-23T10:44:37.004Z,20.24
2018-12-23T10:45:35.630Z,20.26
2018-12-23T10:46:37.253Z,20.32
2018-12-23T10:47:36.704Z,20.36
2018-12-23T10:48:36.963Z,20.41
2018-12-23T10:49:37.692Z,20.43
2018-12-23T10:50:36.703Z,20.47
2018-12-23T10:51:21.529Z,20.49
2018-12-23T10:52:21.836Z,20.53
2018-12-23T10:53:40.704Z,20.57
2018-12-23T10:55:15.494Z,20.61
2018-12-23T10:56:15.509Z,20.65
2018-12-23T10:57:15.247Z,20.69
2018-12-23T10:58:15.001Z,20.72
2018-12-23T10:59:15.496Z,20.74
2018-12-23T11:00:15.762Z,20.77
2018-12-23T11:01:14.940Z,20.79
2018-12-23T11:02:15.251Z,20.81
2018-12-23T11:03:15.469Z,20.83
2018-12-23T11:04:15.254Z,20.85
2018-12-23T11:05:14.276Z,20.88
2018-12-23T11:06:15.264Z,20.89
2018-12-23T11:07:15.752Z,20.9
2018-12-23T11:26:48.840Z,21.13
2018-12-23T11:27:48.630Z,21.14
2018-12-23T11:28:48.624Z,21.16
2018-12-23T11:29:48.831Z,21.17
2018-12-23T11:30:48.621Z,21.18
2018-12-23T11:31:48.766Z,21.18
2018-12-23T11:32:48.773Z,21.19
2018-12-23T11:33:49.576Z,21.21
2018-12-23T11:34:48.801Z,21.21
2018-12-23T11:35:48.483Z,21.21
2018-12-23T11:36:48.994Z,21.22
2018-12-23T11:37:24.979Z,21.23
2018-12-23T11:38:25.449Z,21.23
2018-12-23T11:39:25.178Z,21.23
2018-12-23T11:40:24.925Z,21.24
2018-12-23T11:41:24.860Z,21.24
2018-12-23T11:42:25.081Z,21.24
2018-12-23T11:43:25.384Z,21.24
2018-12-23T11:51:53.303Z,21.24
2018-12-23T11:52:53.371Z,21.24
2018-12-23T11:53:53.559Z,21.25
2018-12-23T11:54:53.104Z,21.26
2018-12-23T11:55:53.384Z,21.28
2018-12-23T11:56:52.939Z,21.29
2018-12-23T11:57:53.532Z,21.29
2018-12-23T11:58:53.169Z,21.3
2018-12-23T11:59:53.679Z,21.3
2018-12-23T12:00:52.768Z,21.32
2018-12-23T12:02:16.227Z,21.33
2018-12-23T12:03:16.224Z,21.34
2018-12-23T12:04:16.223Z,21.34
2018-12-23T12:05:16.748Z,21.35
2018-12-23T12:06:16.272Z,21.36
2018-12-23T12:06:54.288Z,21.36
2018-12-23T12:07:54.259Z,21.37
2018-12-23T12:08:54.287Z,21.38
2018-12-23T12:09:54.241Z,21.38
2018-12-23T12:10:53.704Z,21.39
2018-12-23T12:11:54.249Z,21.4
2018-12-23T12:12:52.850Z,21.41
2018-12-23T12:13:53.949Z,21.36
2018-12-23T12:14:53.643Z,21.36
2018-12-23T12:15:54.355Z,21.34
2018-12-23T12:16:54.555Z,21.33
2018-12-23T12:17:59.197Z,21.33
2018-12-23T12:18:53.704Z,21.32
2018-12-23T12:19:54.293Z,21.32
2018-12-23T12:20:54.041Z,21.31
2018-12-23T12:21:53.910Z,21.32
2018-12-23T12:22:54.155Z,21.36
2018-12-23T12:23:53.397Z,21.36
2018-12-23T12:24:53.989Z,21.36
2018-12-23T12:25:54.257Z,21.38
2018-12-23T12:26:54.249Z,21.37
2018-12-23T12:27:54.296Z,21.38
2018-12-23T12:28:54.064Z,21.38
2018-12-23T12:29:54.114Z,21.39
2018-12-23T12:30:54.447Z,21.4
2018-12-23T12:31:54.362Z,21.42
2018-12-23T12:32:54.205Z,21.42
2018-12-23T12:33:54.501Z,21.42
2018-12-23T12:34:54.241Z,21.42
2018-12-23T12:35:54.256Z,21.42
2018-12-23T12:36:54.531Z,21.42
2018-12-23T12:37:54.395Z,21.42
2018-12-23T12:38:54.342Z,21.43
2018-12-23T12:39:53.830Z,21.37
2018-12-23T12:40:54.860Z,21.33
2018-12-23T12:41:54.401Z,21.31
2018-12-23T12:42:54.170Z,21.3
2018-12-23T12:43:53.948Z,21.3
2018-12-23T12:44:53.842Z,21.29
2018-12-23T12:46:01.123Z,21.28
2018-12-23T12:46:53.997Z,21.25
2018-12-23T12:47:54.479Z,21.26
2018-12-23T12:48:53.483Z,21.28
2018-12-23T12:49:54.094Z,21.28
2018-12-23T12:50:54.570Z,21.3
2018-12-23T12:51:54.360Z,21.32
2018-12-23T12:52:54.131Z,21.33
2018-12-23T12:53:53.873Z,21.34
2018-12-23T12:54:54.116Z,21.35
2018-12-23T12:55:54.152Z,21.36
2018-12-23T12:56:54.166Z,21.3
2018-12-23T12:57:54.456Z,21.29
2018-12-23T12:58:53.805Z,21.26
2018-12-23T12:59:53.721Z,21.27
2018-12-23T13:00:54.249Z,21.26
2018-12-23T13:01:54.033Z,21.26
2018-12-23T13:02:54.569Z,21.26
2018-12-23T13:03:54.586Z,21.25
2018-12-23T13:04:54.337Z,21.23
2018-12-23T13:05:54.359Z,21.26
2018-12-23T13:06:54.861Z,21.3
2018-12-23T13:07:54.384Z,21.31
2018-12-23T13:09:00.987Z,21.33
2018-12-23T13:09:53.410Z,21.35
2018-12-23T13:10:53.743Z,21.37
2018-12-23T13:11:54.174Z,21.39
2018-12-23T13:12:54.253Z,21.4
2018-12-23T13:13:53.609Z,21.35
2018-12-23T13:14:46.893Z,21.34
2018-12-23T13:15:46.854Z,21.33
2018-12-23T13:16:46.069Z,21.33
2018-12-23T13:17:46.462Z,21.3
2018-12-23T13:18:46.910Z,21.3
2018-12-23T13:19:47.116Z,21.3
2018-12-23T13:20:47.183Z,21.29
2018-12-23T13:21:46.881Z,21.28